Detall de PIREP

Printer-friendly versionPDF version

[2012/08/10 10:09:00]
Flight IATA:CT1005
Pilot Number:037
Company ICAO:CAT
Aircraft Type:B752/E
PAX:91
Aircraft Registration:PAX
Departing Airport: LJLJ
Destination Airport: LHSM
Alternate Airport:LHBP
Online: VATSIM
Route:VALLU M859 DIMLO
Flight Level:F170
No Slew and time accel
No pause
Crash detect
Detect pilot in Cockpit between each 30 and 45 minutes
10:09 Zero fuel Weight: 156091 Lbs, Fuel Weight: 14578 Lbs
10:09 VATSIM:LJLJ 101000Z 14005KT 080V210 9999 FEW060 SCT250 24/11 Q1021 NOSIG
10:09 VATSIM:LHSM 100945Z 01008KT CAVOK 24/10 Q1022 NOSIG
10:17 Parking Brakes off
10:24 Take-off
10:24 Take off Weight: 169712 Lbs
10:24 Wind: 077º @ 005 Knots Heading: 124º
10:24 POS N46º 13´ 28´´ E014º 27´ 22´´
10:24 Flaps:2 at 180 Knots
10:24 Gear Up: 183 Knots
10:24 Flaps:1 at 188 Knots
10:24 Flaps:0 at 200 Knots
10:31 TOC
10:31 Fuel Weight: 11773 Lb
10:35 TOD
10:35 Fuel Weight: 11185 Lb
10:39 Wind:057º@013 Knots Heading: 062º Ground Speed: 281 Knots Altitude 11233 ft
10:50 Flaps:1 at 205 Knots
10:51 Flaps:2 at 180 Knots
10:51 Flaps:3 at 170 Knots
10:52 Gear Down: 158 Knots
10:52 Flaps:4 at 151 Knots
10:53 Flaps:5 at 137 Knots
10:54 Wind:008º@009 Knots Heading: 163º Ground Speed: 149 Knots Altitude 1938 ft
10:54 Flaps:6 at 134 Knots
10:55 TouchDown:Rate -258 ft/min Speed: 121 Knots
10:56 VATSIM:LHSM 101015Z 01009KT CAVOK 24/09 Q1022 NOSIG
10:56 Land
10:56 Wind:008º@009 Knots
10:56 Heading: 167º
10:56 Flight Duration: 00:32
10:56 Landing Weight: 165649 Lbs
10:56 POS N46º 41´ 10´´ E017º 09´ 32´´
11:01 Parking brakes on
11:01 Block to Block Duration: 00:44
11:01 Final Fuel: 8994 Lbls
11:01 Spent Fuel: 5584 Lbls
11:01 Flight Length: 141 NM
11:01 TOD Land Length: 82 NM

Exportar CSV

Powered by Drupal - Modified by Danger4k